createdAt,value
2023-04-10T00:00:38.342Z,24.42
2023-04-10T00:03:06.105Z,29.15
2023-04-10T00:05:33.500Z,24.92
2023-04-10T00:08:00.957Z,26.77
2023-04-10T00:10:30.508Z,26.40
2023-04-10T00:12:59.116Z,27.95
2023-04-10T00:15:26.458Z,28.65
2023-04-10T00:17:55.432Z,31.35
2023-04-10T00:20:23.932Z,28.75
2023-04-10T00:22:51.208Z,27.42
2023-04-10T00:25:18.485Z,28.67
2023-04-10T00:27:45.643Z,26.65
2023-04-10T00:30:12.821Z,27.15
2023-04-10T00:32:40.119Z,30.10
2023-04-10T00:35:09.045Z,32.45
2023-04-10T00:37:36.705Z,31.27
2023-04-10T00:40:06.304Z,27.10
2023-04-10T00:42:33.549Z,28.13
2023-04-10T00:45:01.064Z,27.75
2023-04-10T00:47:28.869Z,24.73
2023-04-10T00:49:56.137Z,27.27
2023-04-10T00:52:25.677Z,27.42
2023-04-10T00:54:53.006Z,31.20
2023-04-10T00:57:20.323Z,29.20
2023-04-10T00:59:48.988Z,26.30
2023-04-10T01:02:16.316Z,25.05
2023-04-10T01:04:44.005Z,22.23
2023-04-10T01:07:38.516Z,25.95
2023-04-10T01:10:26.333Z,33.25
2023-04-10T01:13:07.065Z,26.13
2023-04-10T01:15:57.800Z,26.05
2023-04-10T01:18:43.519Z,27.20
2023-04-10T01:21:14.843Z,24.73
2023-04-10T01:24:11.724Z,25.90
2023-04-10T01:27:17.052Z,27.73
2023-04-10T01:29:52.122Z,26.30
2023-04-10T01:32:22.604Z,28.23
2023-04-10T01:34:57.275Z,26.13
2023-04-10T01:37:30.372Z,27.52
2023-04-10T01:40:07.107Z,28.38
2023-04-10T01:42:42.354Z,28.55
2023-04-10T01:45:18.559Z,28.77
2023-04-10T01:47:46.077Z,24.92
2023-04-10T01:50:14.055Z,27.35
2023-04-10T01:52:42.354Z,26.98
2023-04-10T01:55:10.285Z,25.90
2023-04-10T01:57:37.550Z,26.48
2023-04-10T02:00:05.526Z,24.17
2023-04-10T02:02:34.235Z,25.73
2023-04-10T02:05:01.692Z,23.92
2023-04-10T02:07:31.522Z,27.73
2023-04-10T02:10:37.407Z,23.00
2023-04-10T02:13:11.490Z,22.90
2023-04-10T02:15:43.786Z,24.33
2023-04-10T02:18:12.123Z,23.42
2023-04-10T02:20:39.243Z,23.80
2023-04-10T02:23:06.983Z,25.13
2023-04-10T02:25:36.902Z,24.92
2023-04-10T02:28:05.553Z,24.52
2023-04-10T02:30:36.003Z,24.05
2023-04-10T02:33:03.211Z,26.95
2023-04-10T02:35:34.551Z,23.00
2023-04-10T02:38:01.728Z,24.75
2023-04-10T02:40:28.876Z,23.65
2023-04-10T02:42:56.202Z,20.98
2023-04-10T02:45:23.292Z,21.83
2023-04-10T02:47:50.425Z,25.25
2023-04-10T02:50:18.194Z,23.27
2023-04-10T02:52:45.460Z,23.45
2023-04-10T02:55:12.777Z,23.35
2023-04-10T02:57:41.510Z,21.88
2023-04-10T03:00:09.817Z,23.88
2023-04-10T03:02:37.357Z,23.60
2023-04-10T03:05:04.923Z,22.90
2023-04-10T03:07:32.327Z,24.70
2023-04-10T03:09:59.497Z,22.92
2023-04-10T03:12:26.593Z,23.17
2023-04-10T03:14:53.730Z,24.55
2023-04-10T03:17:21.015Z,23.77
2023-04-10T03:19:48.102Z,23.27
2023-04-10T03:22:15.187Z,22.60
2023-04-10T03:24:42.412Z,24.33
2023-04-10T03:27:09.541Z,26.25
2023-04-10T03:29:36.643Z,23.73
2023-04-10T03:32:03.877Z,22.38
2023-04-10T03:34:31.010Z,27.23
2023-04-10T03:36:58.097Z,24.83
2023-04-10T03:39:25.369Z,21.50
2023-04-10T03:41:52.519Z,25.42
2023-04-10T03:44:19.787Z,24.02
2023-04-10T03:46:46.961Z,23.23
2023-04-10T03:49:14.026Z,21.67
2023-04-10T03:51:41.092Z,24.15
2023-04-10T03:54:08.163Z,24.98
2023-04-10T03:56:35.439Z,22.60
2023-04-10T03:59:02.529Z,22.75
2023-04-10T04:01:29.957Z,23.70
2023-04-10T04:03:57.593Z,23.98
2023-04-10T04:06:25.578Z,22.77
2023-04-10T04:08:52.783Z,24.55
2023-04-10T04:11:19.915Z,26.83
2023-04-10T04:13:46.938Z,23.77
2023-04-10T04:16:14.174Z,24.92
2023-04-10T04:18:41.279Z,25.83
2023-04-10T04:21:08.664Z,25.77
2023-04-10T04:23:36.007Z,23.83
2023-04-10T04:26:03.152Z,23.13
2023-04-10T04:28:30.497Z,23.25
2023-04-10T04:30:57.715Z,24.52
2023-04-10T04:33:24.792Z,24.90
2023-04-10T04:35:51.919Z,22.15
2023-04-10T04:38:20.289Z,22.02
2023-04-10T04:40:47.404Z,26.83
2023-04-10T04:43:14.538Z,22.20
2023-04-10T04:45:41.613Z,25.13
2023-04-10T04:48:08.665Z,23.92
2023-04-10T04:50:35.891Z,25.52
2023-04-10T04:53:02.974Z,23.52
2023-04-10T04:55:30.034Z,30.45
2023-04-10T04:57:57.106Z,25.67
2023-04-10T05:00:24.210Z,23.95
2023-04-10T05:02:51.607Z,28.98
2023-04-10T05:05:18.795Z,27.85
2023-04-10T05:07:45.858Z,24.77
2023-04-10T05:10:12.971Z,24.25
2023-04-10T05:12:41.941Z,27.38
2023-04-10T05:15:09.904Z,29.05
2023-04-10T05:17:37.126Z,27.05
2023-04-10T05:20:04.938Z,28.67
2023-04-10T05:22:32.554Z,25.95
2023-04-10T05:25:02.496Z,29.55
2023-04-10T05:27:29.760Z,24.92
2023-04-10T05:29:56.829Z,25.90
2023-04-10T05:32:24.019Z,27.30
2023-04-10T05:34:51.444Z,24.52
2023-04-10T05:37:18.573Z,25.95
2023-04-10T05:39:45.818Z,25.33
2023-04-10T05:42:13.571Z,25.92
2023-04-10T05:44:40.897Z,27.00
2023-04-10T05:47:08.027Z,23.35
2023-04-10T05:49:35.166Z,25.88
2023-04-10T05:52:02.274Z,22.67
2023-04-10T05:54:29.362Z,23.70
2023-04-10T05:56:56.822Z,26.80
2023-04-10T05:59:24.031Z,26.73
2023-04-10T06:01:51.684Z,29.30
2023-04-10T06:04:19.141Z,26.20
2023-04-10T06:06:46.460Z,23.50
2023-04-10T06:09:13.546Z,24.30
2023-04-10T06:11:41.132Z,29.10
2023-04-10T06:14:08.215Z,25.13
2023-04-10T06:16:35.532Z,24.25
2023-04-10T06:19:02.967Z,26.42
2023-04-10T06:21:30.057Z,24.90
2023-04-10T06:23:57.166Z,27.60
2023-04-10T06:26:25.988Z,26.05
2023-04-10T06:28:53.369Z,23.60
2023-04-10T06:31:24.280Z,24.02
2023-04-10T06:33:51.488Z,24.55
2023-04-10T06:36:18.667Z,31.10
2023-04-10T06:38:45.859Z,30.08
2023-04-10T06:41:12.950Z,25.08
2023-04-10T06:43:40.373Z,25.80
2023-04-10T06:46:07.773Z,28.92
2023-04-10T06:48:34.959Z,28.73
2023-04-10T06:51:02.135Z,30.58
2023-04-10T06:53:29.679Z,28.90
2023-04-10T06:55:57.481Z,29.90
2023-04-10T06:58:24.666Z,26.02
2023-04-10T07:00:52.068Z,28.38
2023-04-10T07:03:19.289Z,29.60
2023-04-10T07:05:46.492Z,30.35
2023-04-10T07:08:13.605Z,33.13
2023-04-10T07:10:40.788Z,32.20
2023-04-10T07:13:08.111Z,30.08
2023-04-10T07:15:35.305Z,29.55
2023-04-10T07:18:02.533Z,29.48
2023-04-10T07:20:29.720Z,29.70
2023-04-10T07:22:56.881Z,30.63
2023-04-10T07:25:23.959Z,28.95
2023-04-10T07:27:51.212Z,36.22
2023-04-10T07:30:19.654Z,29.77
2023-04-10T07:32:46.986Z,30.95
2023-04-10T07:35:17.012Z,32.72
2023-04-10T07:37:44.391Z,31.73
2023-04-10T07:40:12.140Z,34.00
2023-04-10T07:42:39.368Z,32.35
2023-04-10T07:45:07.398Z,33.00
2023-04-10T07:47:34.522Z,34.70
2023-04-10T07:50:01.807Z,34.83
2023-04-10T07:52:29.017Z,33.88
2023-04-10T07:54:56.114Z,35.85
2023-04-10T07:57:24.548Z,34.58
2023-04-10T07:59:51.618Z,35.00
2023-04-10T08:02:18.761Z,32.15
2023-04-10T08:04:46.132Z,39.03
2023-04-10T08:07:13.363Z,32.25
2023-04-10T08:09:40.833Z,34.20
2023-04-10T08:12:07.937Z,32.47
2023-04-10T08:14:35.045Z,34.38
2023-04-10T08:17:02.362Z,32.35
2023-04-10T08:19:29.556Z,34.80
2023-04-10T08:21:56.646Z,38.30
2023-04-10T08:24:23.719Z,35.58
2023-04-10T08:26:50.913Z,34.85
2023-04-10T08:29:18.003Z,35.92
2023-04-10T08:31:45.090Z,33.70
2023-04-10T08:34:12.238Z,36.65
2023-04-10T08:36:39.306Z,35.08
2023-04-10T08:39:06.430Z,36.17
2023-04-10T08:41:33.639Z,35.80
2023-04-10T08:44:00.812Z,39.83
2023-04-10T08:46:31.718Z,32.58
2023-04-10T08:49:05.853Z,33.00
2023-04-10T08:51:47.843Z,34.88
2023-04-10T08:54:26.136Z,31.52
2023-04-10T08:56:56.024Z,32.70
2023-04-10T08:59:23.411Z,30.13
2023-04-10T09:01:50.715Z,36.80
2023-04-10T09:04:21.814Z,33.13
2023-04-10T09:06:49.075Z,32.83
2023-04-10T09:09:16.317Z,30.85
2023-04-10T09:11:52.521Z,30.33
2023-04-10T09:14:34.637Z,31.58
2023-04-10T09:17:20.353Z,28.77
2023-04-10T09:19:55.737Z,34.58
2023-04-10T09:22:34.822Z,29.55
2023-04-10T09:25:04.360Z,30.23
2023-04-10T09:27:35.327Z,28.73
2023-04-10T09:30:03.506Z,27.20
2023-04-10T09:32:38.124Z,27.88
2023-04-10T09:35:06.038Z,31.92
2023-04-10T09:37:34.642Z,28.40
2023-04-10T09:40:02.619Z,30.83
2023-04-10T09:42:37.305Z,30.38
2023-04-10T09:45:06.008Z,30.42
2023-04-10T09:47:33.258Z,30.98
2023-04-10T09:50:01.200Z,31.85
2023-04-10T09:52:37.416Z,31.30
2023-04-10T09:55:09.962Z,31.75
2023-04-10T09:57:37.102Z,34.67
2023-04-10T10:00:07.259Z,29.73
2023-04-10T10:02:40.770Z,29.58
2023-04-10T10:05:08.673Z,36.05
2023-04-10T10:07:36.793Z,32.53
2023-04-10T10:10:06.384Z,34.55
2023-04-10T10:12:50.538Z,32.17
2023-04-10T10:15:46.789Z,30.30
2023-04-10T10:18:49.518Z,34.30
2023-04-10T10:21:19.058Z,33.15
2023-04-10T10:23:48.326Z,33.22
2023-04-10T10:26:16.177Z,37.10
2023-04-10T10:28:46.385Z,33.78
2023-04-10T10:31:13.935Z,33.55
2023-04-10T10:33:41.796Z,30.20
2023-04-10T10:36:10.892Z,32.35
2023-04-10T10:38:48.192Z,34.78
2023-04-10T10:41:32.852Z,34.22
2023-04-10T10:44:31.902Z,32.70
2023-04-10T10:47:06.352Z,28.98
2023-04-10T10:49:56.878Z,35.10
2023-04-10T10:53:02.537Z,32.13
2023-04-10T10:55:31.683Z,32.20
2023-04-10T10:58:09.776Z,30.23
2023-04-10T11:00:51.815Z,31.73
2023-04-10T11:03:19.167Z,30.23
2023-04-10T11:06:07.218Z,30.10
2023-04-10T11:08:35.309Z,30.60
2023-04-10T11:11:16.293Z,29.33
2023-04-10T11:14:06.501Z,29.73
2023-04-10T11:16:34.905Z,29.98
2023-04-10T11:19:14.160Z,32.78
2023-04-10T11:22:08.147Z,32.35
2023-04-10T11:24:53.068Z,29.58
2023-04-10T11:27:48.619Z,29.02
2023-04-10T11:30:37.891Z,30.10
2023-04-10T11:33:06.011Z,34.75
2023-04-10T11:35:33.996Z,32.72
2023-04-10T11:38:16.709Z,30.75
2023-04-10T11:41:04.314Z,30.00
2023-04-10T11:43:33.793Z,30.67
2023-04-10T11:46:06.225Z,31.48
2023-04-10T11:48:33.990Z,31.05
2023-04-10T11:51:12.265Z,27.60
2023-04-10T11:53:41.319Z,32.45
2023-04-10T11:56:22.078Z,31.35
2023-04-10T11:58:54.726Z,27.52
2023-04-10T12:01:23.748Z,30.63
2023-04-10T12:03:51.692Z,31.05
2023-04-10T12:06:19.755Z,28.13
2023-04-10T12:08:51.522Z,27.17
2023-04-10T12:11:25.648Z,28.02
2023-04-10T12:13:55.142Z,28.35
2023-04-10T12:16:22.882Z,29.42
2023-04-10T12:18:50.727Z,29.15
2023-04-10T12:21:18.321Z,28.75
2023-04-10T12:23:45.618Z,28.75
2023-04-10T12:26:19.060Z,30.30
2023-04-10T12:28:59.636Z,27.08
2023-04-10T12:31:28.380Z,29.75
2023-04-10T12:33:57.884Z,27.23
2023-04-10T12:36:30.556Z,27.92
2023-04-10T12:39:18.861Z,26.63
2023-04-10T12:41:45.965Z,26.13
2023-04-10T12:44:14.541Z,25.30
2023-04-10T12:46:43.521Z,35.65
2023-04-10T12:49:16.464Z,26.85
2023-04-10T12:51:51.760Z,28.55
2023-04-10T12:54:33.554Z,24.40
2023-04-10T12:57:02.318Z,27.90
2023-04-10T12:59:30.466Z,23.67
2023-04-10T13:01:57.766Z,27.73
2023-04-10T13:04:25.405Z,25.23
2023-04-10T13:06:53.049Z,24.52
2023-04-10T13:09:20.370Z,25.35
2023-04-10T13:11:48.568Z,24.02
2023-04-10T13:14:17.891Z,25.40
2023-04-10T13:16:45.137Z,29.50
2023-04-10T13:19:13.023Z,26.17
2023-04-10T13:21:40.203Z,23.60
2023-04-10T13:24:07.292Z,25.92
2023-04-10T13:26:34.383Z,23.02
2023-04-10T13:29:01.466Z,25.02
2023-04-10T13:31:28.703Z,23.48
2023-04-10T13:33:55.803Z,24.95
2023-04-10T13:36:23.404Z,22.20
2023-04-10T13:38:50.955Z,23.00
2023-04-10T13:41:18.302Z,24.20
2023-04-10T13:43:45.471Z,21.90
2023-04-10T13:46:12.561Z,22.05
2023-04-10T13:48:41.469Z,24.35
2023-04-10T13:51:09.839Z,25.42
2023-04-10T13:53:36.980Z,22.73
2023-04-10T13:56:04.327Z,24.02
2023-04-10T13:58:34.250Z,20.95
2023-04-10T14:01:01.967Z,21.73
2023-04-10T14:03:29.333Z,19.90
2023-04-10T14:05:56.590Z,24.50
2023-04-10T14:08:23.727Z,21.40
2023-04-10T14:10:51.503Z,20.67
2023-04-10T14:13:19.262Z,22.73
2023-04-10T14:15:46.787Z,21.15
2023-04-10T14:18:17.450Z,19.95
2023-04-10T14:20:44.808Z,17.83
2023-04-10T14:23:18.285Z,18.15
2023-04-10T14:25:46.861Z,20.95
2023-04-10T14:28:17.843Z,20.08
2023-04-10T14:30:50.903Z,17.85
2023-04-10T14:33:20.069Z,16.45
2023-04-10T14:35:48.418Z,16.38
2023-04-10T14:38:16.004Z,18.05
2023-04-10T14:40:43.771Z,16.58
2023-04-10T14:43:10.900Z,19.40
2023-04-10T14:45:38.002Z,18.73
2023-04-10T14:48:05.242Z,19.95
2023-04-10T14:50:33.419Z,21.95
2023-04-10T14:53:00.866Z,18.35
2023-04-10T14:55:31.080Z,18.58
2023-04-10T14:57:58.986Z,19.13
2023-04-10T15:00:26.835Z,20.92
2023-04-10T15:02:54.183Z,22.83
2023-04-10T15:05:23.138Z,21.20
2023-04-10T15:07:50.273Z,20.63
2023-04-10T15:10:17.514Z,21.95
2023-04-10T15:12:44.721Z,18.98
2023-04-10T15:15:11.978Z,20.50
2023-04-10T15:17:39.106Z,18.17
2023-04-10T15:20:07.078Z,21.08
2023-04-10T15:22:35.674Z,19.58
2023-04-10T15:25:03.097Z,17.63
2023-04-10T15:27:30.642Z,20.25
2023-04-10T15:29:57.767Z,17.20
2023-04-10T15:32:25.032Z,19.70
2023-04-10T15:34:52.233Z,21.33
2023-04-10T15:37:19.314Z,22.13
2023-04-10T15:39:46.391Z,17.33
2023-04-10T15:42:13.614Z,16.98
2023-04-10T15:44:40.826Z,18.25
2023-04-10T15:47:07.974Z,18.90
2023-04-10T15:49:38.274Z,17.67
2023-04-10T15:52:07.269Z,17.92
2023-04-10T15:54:35.082Z,14.73
2023-04-10T15:57:03.683Z,18.42
2023-04-10T15:59:32.771Z,16.30
2023-04-10T16:01:59.933Z,15.30
2023-04-10T16:04:27.191Z,14.73
2023-04-10T16:06:56.306Z,16.88
2023-04-10T16:09:26.416Z,16.15
2023-04-10T16:11:54.968Z,16.83
2023-04-10T16:14:22.765Z,20.35
2023-04-10T16:16:51.084Z,19.73
2023-04-10T16:19:18.218Z,18.38
2023-04-10T16:21:45.301Z,18.52
2023-04-10T16:24:12.472Z,19.35
2023-04-10T16:26:39.591Z,19.08
2023-04-10T16:29:06.726Z,17.55
2023-04-10T16:31:33.891Z,18.70
2023-04-10T16:34:01.374Z,17.85
2023-04-10T16:36:28.466Z,18.67
2023-04-10T16:38:55.786Z,19.98
2023-04-10T16:41:23.152Z,19.60
2023-04-10T16:43:50.288Z,18.30
2023-04-10T16:46:17.660Z,16.30
2023-04-10T16:48:44.975Z,18.00
2023-04-10T16:51:18.802Z,17.33
2023-04-10T16:53:46.125Z,20.08
2023-04-10T16:56:13.474Z,18.73
2023-04-10T16:58:42.069Z,22.17
2023-04-10T17:01:18.361Z,21.77
2023-04-10T17:03:47.715Z,17.90
2023-04-10T17:06:16.248Z,17.52
2023-04-10T17:08:44.436Z,17.92
2023-04-10T17:11:15.995Z,17.48
2023-04-10T17:13:43.172Z,17.48
2023-04-10T17:16:10.711Z,22.83
2023-04-10T17:18:37.962Z,18.98
2023-04-10T17:21:05.519Z,22.58
2023-04-10T17:23:32.784Z,17.20
2023-04-10T17:26:00.150Z,21.08
2023-04-10T17:28:27.663Z,20.98
2023-04-10T17:30:54.738Z,21.77
2023-04-10T17:33:23.632Z,22.67
2023-04-10T17:35:52.034Z,20.27
2023-04-10T17:38:19.876Z,19.85
2023-04-10T17:40:47.387Z,19.45
2023-04-10T17:43:14.480Z,20.42
2023-04-10T17:45:41.718Z,21.80
2023-04-10T17:48:10.266Z,20.75
2023-04-10T17:50:37.519Z,24.00
2023-04-10T17:53:06.072Z,23.05
2023-04-10T17:55:39.407Z,23.10
2023-04-10T17:58:06.672Z,25.17
2023-04-10T18:00:34.376Z,19.95
2023-04-10T18:03:01.617Z,22.15
2023-04-10T18:05:34.760Z,22.00
2023-04-10T18:08:02.137Z,22.02
2023-04-10T18:10:29.193Z,23.85
2023-04-10T18:12:59.101Z,23.92
2023-04-10T18:15:27.253Z,22.90
2023-04-10T18:17:55.439Z,21.88
2023-04-10T18:20:22.795Z,24.60
2023-04-10T18:22:49.929Z,23.25
2023-04-10T18:25:20.780Z,22.23
2023-04-10T18:28:12.992Z,29.73
2023-04-10T18:30:40.521Z,24.17
2023-04-10T18:33:11.088Z,26.60
2023-04-10T18:35:38.984Z,26.02
2023-04-10T18:38:06.423Z,24.60
2023-04-10T18:40:35.039Z,23.00
2023-04-10T18:43:02.293Z,25.13
2023-04-10T18:45:29.923Z,24.45
2023-04-10T18:47:57.581Z,21.33
2023-04-10T18:50:25.159Z,25.50
2023-04-10T18:52:52.943Z,24.60
2023-04-10T18:55:21.541Z,24.38
2023-04-10T18:57:48.872Z,26.83
2023-04-10T19:00:16.804Z,25.77
2023-04-10T19:02:44.643Z,24.38
2023-04-10T19:05:14.384Z,27.65
2023-04-10T19:07:47.227Z,24.30
2023-04-10T19:10:20.911Z,26.23
2023-04-10T19:12:49.301Z,26.38
2023-04-10T19:15:17.212Z,25.52
2023-04-10T19:17:44.703Z,26.40
2023-04-10T19:20:12.641Z,26.73
2023-04-10T19:22:40.709Z,28.25
2023-04-10T19:25:09.104Z,29.75
2023-04-10T19:27:37.157Z,30.25
2023-04-10T19:30:06.917Z,28.00
2023-04-10T19:32:34.332Z,32.22
2023-04-10T19:35:02.375Z,28.85
2023-04-10T19:37:31.477Z,29.95
2023-04-10T19:39:58.713Z,32.80
2023-04-10T19:42:26.236Z,33.75
2023-04-10T19:44:53.787Z,31.60
2023-04-10T19:47:21.603Z,34.38
2023-04-10T19:49:49.217Z,34.90
2023-04-10T19:52:17.020Z,32.38
2023-04-10T19:54:44.357Z,29.85
2023-04-10T19:57:11.684Z,30.67
2023-04-10T19:59:39.138Z,30.50
2023-04-10T20:02:09.163Z,31.58
2023-04-10T20:04:37.073Z,36.53
2023-04-10T20:07:04.500Z,33.35
2023-04-10T20:09:31.778Z,33.85
2023-04-10T20:11:59.025Z,32.63
2023-04-10T20:14:26.153Z,36.72
2023-04-10T20:16:53.298Z,40.53
2023-04-10T20:19:20.553Z,33.22
2023-04-10T20:21:47.900Z,37.05
2023-04-10T20:24:15.283Z,35.38
2023-04-10T20:26:42.417Z,35.15
2023-04-10T20:29:09.469Z,36.90
2023-04-10T20:31:36.610Z,34.92
2023-04-10T20:34:04.020Z,37.47
2023-04-10T20:36:32.435Z,36.33
2023-04-10T20:38:59.545Z,38.78
2023-04-10T20:41:27.876Z,37.10
2023-04-10T20:43:57.413Z,42.20
2023-04-10T20:46:27.150Z,37.35
2023-04-10T20:48:59.300Z,40.40
2023-04-10T20:51:28.085Z,39.42
2023-04-10T20:53:55.288Z,39.80
2023-04-10T20:56:32.817Z,37.42
2023-04-10T20:59:07.659Z,50.10
2023-04-10T21:01:35.092Z,35.50
2023-04-10T21:04:02.867Z,47.05
2023-04-10T21:06:31.775Z,39.38
2023-04-10T21:08:58.855Z,39.67
2023-04-10T21:11:28.928Z,38.17
2023-04-10T21:13:56.033Z,41.25
2023-04-10T21:16:23.209Z,37.00
2023-04-10T21:18:51.443Z,38.17
2023-04-10T21:21:18.634Z,37.78
2023-04-10T21:23:45.829Z,38.90
2023-04-10T21:26:13.029Z,41.38
2023-04-10T21:28:40.199Z,42.40
2023-04-10T21:31:07.478Z,37.40
2023-04-10T21:33:34.599Z,41.05
2023-04-10T21:36:01.842Z,39.83
2023-04-10T21:38:29.134Z,40.10
2023-04-10T21:40:56.338Z,40.72
2023-04-10T21:43:23.499Z,39.47
2023-04-10T21:45:50.648Z,40.17
2023-04-10T21:48:19.508Z,42.65
2023-04-10T21:50:47.192Z,40.03
2023-04-10T21:53:15.475Z,39.50
2023-04-10T21:55:42.631Z,45.85
2023-04-10T21:58:09.772Z,44.90
2023-04-10T22:00:36.904Z,45.20
2023-04-10T22:03:04.290Z,43.33
2023-04-10T22:05:31.884Z,56.35
2023-04-10T22:07:58.994Z,42.63
2023-04-10T22:10:26.151Z,49.47
2023-04-10T22:12:53.275Z,50.65
2023-04-10T22:15:20.598Z,44.25
2023-04-10T22:17:47.746Z,51.55
2023-04-10T22:20:14.934Z,45.92
2023-04-10T22:22:42.041Z,44.72
2023-04-10T22:25:09.499Z,46.92
2023-04-10T22:27:37.201Z,45.67
2023-04-10T22:30:04.919Z,43.88
2023-04-10T22:32:32.511Z,43.85
2023-04-10T22:35:00.291Z,42.20
2023-04-10T22:37:28.078Z,41.83
2023-04-10T22:39:58.043Z,46.63
2023-04-10T22:42:25.195Z,50.08
2023-04-10T22:44:52.346Z,47.15
2023-04-10T22:47:19.568Z,51.15
2023-04-10T22:49:46.630Z,52.10
2023-04-10T22:52:13.883Z,56.95
2023-04-10T22:54:40.995Z,55.78
2023-04-10T22:57:08.070Z,50.20
2023-04-10T22:59:38.714Z,51.72
2023-04-10T23:02:05.883Z,51.42
2023-04-10T23:04:33.160Z,50.90
2023-04-10T23:07:00.440Z,50.78
2023-04-10T23:09:28.586Z,47.83
2023-04-10T23:11:56.489Z,45.42
2023-04-10T23:14:23.632Z,43.20
2023-04-10T23:16:50.960Z,46.50
2023-04-10T23:19:19.093Z,45.20
2023-04-10T23:21:46.226Z,43.67
2023-04-10T23:24:13.332Z,45.38
2023-04-10T23:26:40.408Z,49.72
2023-04-10T23:29:07.548Z,48.47
2023-04-10T23:31:34.644Z,46.03
2023-04-10T23:34:01.783Z,48.47
2023-04-10T23:36:28.869Z,47.58
2023-04-10T23:38:56.103Z,44.10
2023-04-10T23:41:23.331Z,39.90
2023-04-10T23:43:50.510Z,42.15
2023-04-10T23:46:17.618Z,43.08
2023-04-10T23:48:44.738Z,44.65
2023-04-10T23:51:11.807Z,39.30
2023-04-10T23:53:38.918Z,41.60
2023-04-10T23:56:07.970Z,42.53
2023-04-10T23:58:35.256Z,41.83
